Time;durP1;ratioP1;P1;durP2;ratioP2;P2;SDS_P1;SDS_P2;PMS_P1;PMS_P2;Temp;Humidity;BMP_temperature;BMP_pressure;BME280_temperature;BME280_humidity;BME280_pressure;Samples;Min_cycle;Max_cycle;Signal;HPM_P1;HPM_P2
2021/05/02 00:00:05;;;;;;;12.40;11.35;;;30.20;93.70;;;;;;5075508;28;20233;-52
2021/05/02 00:02:36;;;;;;;13.27;11.88;;;30.30;93.70;;;;;;5090581;28;20236;-55
2021/05/02 00:05:07;;;;;;;12.40;11.20;;;30.40;93.80;;;;;;5090830;28;20202;-51
2021/05/02 00:07:38;;;;;;;13.85;12.45;;;30.40;93.90;;;;;;5091270;28;20284;-50
2021/05/02 00:10:10;;;;;;;13.93;12.52;;;30.40;93.90;;;;;;5091139;28;20203;-54
2021/05/02 00:12:41;;;;;;;13.40;12.10;;;30.50;93.90;;;;;;5079882;28;20555;-49
2021/05/02 00:15:13;;;;;;;13.73;12.45;;;30.50;94.00;;;;;;5090957;28;20236;-53
2021/05/02 00:17:44;;;;;;;14.73;13.23;;;30.50;94.00;;;;;;5089168;28;20246;-52
2021/05/02 00:20:15;;;;;;;15.25;13.70;;;30.60;94.00;;;;;;5088235;28;20653;-52
2021/05/02 00:22:46;;;;;;;15.90;14.40;;;30.60;94.00;;;;;;5088452;28;20189;-50
2021/05/02 00:25:17;;;;;;;16.58;14.40;;;30.70;93.80;;;;;;5089042;28;20273;-54
2021/05/02 00:27:48;;;;;;;15.90;14.40;;;30.70;93.70;;;;;;5088291;28;20428;-53
2021/05/02 00:30:20;;;;;;;16.67;15.07;;;30.80;93.60;;;;;;5089198;28;20712;-53
2021/05/02 00:32:52;;;;;;;16.58;14.88;;;30.80;93.40;;;;;;5089132;28;20877;-55
2021/05/02 00:35:25;;;;;;;16.55;14.57;;;30.90;93.20;;;;;;5086802;28;20216;-55
2021/05/02 00:37:57;;;;;;;17.45;15.65;;;30.90;93.10;;;;;;5089749;28;20644;-56
2021/05/02 00:40:33;;;;;;;16.83;15.32;;;30.90;93.00;;;;;;5089352;28;20213;-54
2021/05/02 00:43:07;;;;;;;18.30;16.50;;;31.00;92.90;;;;;;5026715;28;20194;-54
2021/05/02 00:45:46;;;;;;;17.02;15.32;;;31.00;92.90;;;;;;5027156;28;20210;-54
2021/05/02 00:48:18;;;;;;;15.35;13.88;;;31.00;92.90;;;;;;5028148;28;20199;-50
2021/05/02 00:50:55;;;;;;;16.08;14.57;;;31.10;92.90;;;;;;4910424;29;20207;-54
2021/05/02 00:53:39;;;;;;;16.13;14.63;;;31.10;92.80;;;;;;4911448;29;20199;-55
2021/05/02 00:56:17;;;;;;;17.15;15.45;;;31.10;92.80;;;;;;4911464;29;20243;-55
2021/05/02 00:59:01;;;;;;;16.83;15.20;;;31.20;92.80;;;;;;4873359;29;20245;-53
2021/05/02 01:01:37;;;;;;;19.02;17.20;;;31.20;92.80;;;;;;4873427;29;20331;-53
2021/05/02 01:04:07;;;;;;;21.35;19.30;;;31.20;92.70;;;;;;4873861;29;20216;-52
2021/05/02 01:06:37;;;;;;;21.40;19.40;;;31.30;92.70;;;;;;4843674;29;20217;-49
2021/05/02 01:09:08;;;;;;;22.38;20.20;;;31.30;92.60;;;;;;4893404;29;20203;-54
2021/05/02 01:11:39;;;;;;;23.10;20.75;;;31.30;92.60;;;;;;4891854;29;20653;-50
2021/05/02 01:14:13;;;;;;;22.30;19.98;;;31.30;92.60;;;;;;4892525;29;20259;-52
2021/05/02 01:16:44;;;;;;;23.83;21.33;;;31.30;92.60;;;;;;4891554;29;20602;-54
2021/05/02 01:19:14;;;;;;;23.95;21.65;;;31.30;92.60;;;;;;4892415;29;20259;-55
2021/05/02 01:21:44;;;;;;;24.73;22.58;;;31.40;92.60;;;;;;4935300;28;20211;-51
2021/05/02 01:24:16;;;;;;;23.58;21.38;;;31.40;92.60;;;;;;4988870;28;20849;-50
2021/05/02 01:27:19;;;;;;;23.15;20.92;;;31.40;92.60;;;;;;4996913;28;20723;-52
2021/05/02 01:29:52;;;;;;;22.73;20.70;;;31.40;92.50;;;;;;5015382;28;20202;-52
2021/05/02 01:32:22;;;;;;;25.15;22.73;;;31.50;92.50;;;;;;5091845;28;20188;-51
2021/05/02 01:34:53;;;;;;;26.83;24.30;;;31.50;92.50;;;;;;5092882;28;20220;-52
2021/05/02 01:37:24;;;;;;;26.92;24.58;;;31.60;92.90;;;;;;5092839;28;20197;-53
2021/05/02 01:39:56;;;;;;;29.92;27.10;;;31.60;92.50;;;;;;5091062;28;20213;-55
2021/05/02 01:42:26;;;;;;;28.77;26.08;;;31.60;92.40;;;;;;5081726;28;20209;-51
2021/05/02 01:44:57;;;;;;;23.75;21.35;;;31.70;92.40;;;;;;5092215;28;20208;-49
2021/05/02 01:47:28;;;;;;;23.85;21.55;;;31.70;92.50;;;;;;5091213;28;20621;-50
2021/05/02 01:50:02;;;;;;;22.75;20.70;;;31.70;92.60;;;;;;5091498;28;20224;-51
2021/05/02 01:52:41;;;;;;;22.50;20.50;;;31.80;92.80;;;;;;5092297;28;20228;-53
2021/05/02 01:55:14;;;;;;;18.00;16.40;;;31.90;92.80;;;;;;5081955;28;20240;-51
2021/05/02 01:57:45;;;;;;;12.68;11.57;;;32.00;92.70;;;;;;5091532;28;20210;-50
2021/05/02 02:00:26;;;;;;;12.35;11.25;;;32.10;92.30;;;;;;5091621;28;20208;-50
